Time;durP1;ratioP1;P1;durP2;ratioP2;P2;SDS_P1;SDS_P2;PMS_P1;PMS_P2;Temp;Humidity;BMP_temperature;BMP_pressure;BME280_temperature;BME280_humidity;BME280_pressure;Samples;Min_cycle;Max_cycle;Signal;HPM_P1;HPM_P2
2021/09/16 00:01:19;;;;;;;;;10.75;9.75;;;;;25.01;51.46;100816.69;6217214;22;57709;-76
2021/09/16 00:03:44;;;;;;;;;13.50;11.25;;;;;25.01;51.56;100816.69;6217990;22;45347;-77
2021/09/16 00:06:09;;;;;;;;;13.50;12.50;;;;;25.02;51.75;100818.47;6217432;22;53664;-76
2021/09/16 00:08:35;;;;;;;;;10.00;10.00;;;;;25.00;51.57;100814.97;6190127;22;57231;-77
2021/09/16 00:11:00;;;;;;;;;11.25;9.25;;;;;25.02;51.73;100815.81;6164811;22;57496;-77
2021/09/16 00:13:26;;;;;;;;;11.50;9.50;;;;;25.00;51.64;100814.09;6190831;22;45365;-77
2021/09/16 00:15:53;;;;;;;;;12.50;11.00;;;;;25.00;51.38;100814.09;6189994;22;47637;-76
2021/09/16 00:18:19;;;;;;;;;11.75;9.75;;;;;24.99;51.71;100817.72;6166030;22;47391;-77
2021/09/16 00:20:44;;;;;;;;;10.50;10.50;;;;;24.99;51.62;100817.72;6218230;22;45229;-77
2021/09/16 00:23:10;;;;;;;;;13.00;11.00;;;;;24.94;51.58;100809.94;6191345;22;45450;-77
2021/09/16 00:25:35;;;;;;;;;9.75;9.75;;;;;24.88;51.80;100798.69;6165663;22;45404;-77
2021/09/16 00:28:00;;;;;;;;;12.50;10.75;;;;;24.95;52.00;100803.66;6190952;22;49352;-77
2021/09/16 00:30:26;;;;;;;;;8.25;7.50;;;;;24.94;51.52;100803.72;6164937;22;56101;-77
2021/09/16 00:32:51;;;;;;;;;10.50;10.00;;;;;24.95;51.59;100808.13;6165205;22;45298;-77
2021/09/16 00:35:17;;;;;;;;;13.75;10.00;;;;;24.95;51.79;100805.47;6217358;22;53451;-77
2021/09/16 00:37:42;;;;;;;;;10.50;9.25;;;;;24.90;52.05;100802.13;6215000;22;48279;-77
2021/09/16 00:40:11;;;;;;;;;10.00;9.25;;;;;24.91;52.12;100802.06;6216586;22;45166;-77
2021/09/16 00:42:36;;;;;;;;;8.00;8.00;;;;;24.94;51.88;100809.06;6218060;22;45190;-77
2021/09/16 00:45:02;;;;;;;;;10.75;10.00;;;;;24.97;51.77;100823.13;6216296;22;45245;-77
2021/09/16 00:47:28;;;;;;;;;8.75;7.75;;;;;24.99;52.40;100826.59;6190401;22;45360;-77
2021/09/16 00:49:53;;;;;;;;;11.00;9.50;;;;;25.01;51.83;100834.50;6190326;22;57085;-77
2021/09/16 00:52:18;;;;;;;;;12.00;10.50;;;;;24.95;51.85;100822.34;6190061;22;50968;-77
2021/09/16 00:54:45;;;;;;;;;11.25;9.75;;;;;24.97;51.94;100824.94;6191003;22;45190;-77
2021/09/16 00:57:11;;;;;;;;;8.00;8.00;;;;;24.92;52.16;100825.16;6190951;22;46348;-76
2021/09/16 00:59:37;;;;;;;;;8.00;8.00;;;;;24.89;51.61;100824.44;6190732;22;45898;-76
2021/09/16 01:02:02;;;;;;;;;10.25;10.25;;;;;24.95;51.95;100834.84;6217248;22;50911;-77
2021/09/16 01:04:29;;;;;;;;;11.25;10.00;;;;;24.93;51.79;100834.03;6217550;22;45192;-77
2021/09/16 01:06:54;;;;;;;;;12.00;11.00;;;;;24.92;51.72;100829.63;6217666;22;46046;-77
2021/09/16 01:09:20;;;;;;;;;9.00;9.00;;;;;24.86;51.54;100825.47;6217892;22;45197;-77
2021/09/16 01:11:45;;;;;;;;;8.00;8.00;;;;;24.89;52.19;100836.00;6215815;22;46795;-77
2021/09/16 01:14:11;;;;;;;;;8.25;8.25;;;;;24.89;51.67;100838.66;6217005;22;58762;-77
2021/09/16 01:16:36;;;;;;;;;9.25;9.00;;;;;24.80;51.83;100829.28;6217449;22;46014;-77
2021/09/16 01:19:03;;;;;;;;;10.25;8.50;;;;;24.85;51.59;100846.88;6190692;22;45395;-76
2021/09/16 01:21:28;;;;;;;;;8.75;8.50;;;;;24.75;51.93;100828.63;6218363;22;45261;-76
2021/09/16 01:23:53;;;;;;;;;9.25;9.25;;;;;24.75;52.12;100831.31;6217924;22;45177;-77
2021/09/16 01:26:19;;;;;;;;;8.00;7.25;;;;;24.74;52.44;100834.91;6190128;22;65540;-75
2021/09/16 01:28:44;;;;;;;;;10.75;9.75;;;;;24.77;52.85;100850.81;6191040;22;45243;-75
2021/09/16 01:31:09;;;;;;;;;10.00;10.00;;;;;24.78;52.34;100855.19;6217597;22;45143;-75
2021/09/16 01:33:35;;;;;;;;;10.75;9.25;;;;;24.67;52.65;100841.50;6216741;22;45150;-75
2021/09/16 01:36:01;;;;;;;;;11.00;11.00;;;;;24.72;52.83;100852.81;6190549;22;47315;-75
2021/09/16 01:38:26;;;;;;;;;8.25;8.00;;;;;24.70;52.11;100849.34;6190485;22;57898;-75
2021/09/16 01:40:52;;;;;;;;;9.75;9.75;;;;;24.73;52.79;100849.19;6165053;22;57725;-75
2021/09/16 01:43:17;;;;;;;;;10.00;9.25;;;;;24.70;52.73;100854.69;6218052;22;45150;-75
2021/09/16 01:45:43;;;;;;;;;8.25;8.00;;;;;24.61;52.38;100848.94;6165036;22;46993;-75
2021/09/16 01:48:08;;;;;;;;;10.75;9.50;;;;;24.62;52.45;100856.88;6190610;22;45523;-75
2021/09/16 01:50:33;;;;;;;;;5.75;4.50;;;;;24.62;52.21;100853.34;6190755;22;45297;-75
2021/09/16 01:52:59;;;;;;;;;8.25;8.25;;;;;24.60;52.67;100852.53;6165392;22;45348;-75
2021/09/16 01:55:24;;;;;;;;;8.25;8.25;;;;;24.63;52.54;100863.94;6215385;22;53242;-75
2021/09/16 01:57:50;;;;;;;;;9.25;8.25;;;;;24.56;52.00;100853.59;6215672;22;45311;-76
2021/09/16 02:00:15;;;;;;;;;9.25;7.75;;;;;24.61;52.21;100868.47;6217272;22;49049;-75
2021/09/16 02:02:41;;;;;;;;;10.00;9.50;;;;;24.55;52.77;100857.22;6165003;22;45285;-75
2021/09/16 02:05:07;;;;;;;;;8.75;8.00;;;;;24.52;51.87;100863.56;6217309;22;45373;-75
2021/09/16 02:07:33;;;;;;;;;6.75;6.75;;;;;24.48;52.46;100864.63;6190282;22;45309;-75
2021/09/16 02:09:58;;;;;;;;;7.00;6.00;;;;;24.46;52.70;100869.19;6190822;22;45200;-75
2021/09/16 02:12:23;;;;;;;;;9.00;9.00;;;;;24.47;52.21;100868.25;6164690;22;54055;-75
2021/09/16 02:14:49;;;;;;;;;8.25;8.00;;;;;24.48;52.81;100875.31;6217104;22;51978;-75
2021/09/16 02:17:14;;;;;;;;;9.75;8.00;;;;;24.51;52.36;100875.19;6190163;22;45210;-75
2021/09/16 02:19:40;;;;;;;;;11.75;10.00;;;;;24.52;52.52;100869.78;6190461;22;49361;-75
2021/09/16 02:22:05;;;;;;;;;8.00;8.00;;;;;24.42;52.45;100856.94;6217643;22;48546;-76
2021/09/16 02:24:30;;;;;;;;;10.00;9.00;;;;;24.47;52.71;100878.91;6217610;22;45214;-76
2021/09/16 02:26:56;;;;;;;;;9.00;8.00;;;;;24.44;52.63;100876.41;6190084;22;47643;-76
2021/09/16 02:29:21;;;;;;;;;9.25;9.25;;;;;24.43;52.59;100878.22;6190995;22;45605;-75
2021/09/16 02:31:47;;;;;;;;;8.75;8.75;;;;;24.43;52.74;100880.00;6190000;22;50750;-76
2021/09/16 02:34:12;;;;;;;;;9.50;8.25;;;;;24.45;53.18;100875.47;6189656;22;49106;-75
2021/09/16 02:36:37;;;;;;;;;9.25;8.50;;;;;24.46;52.53;100880.72;6165173;22;45188;-75
2021/09/16 02:39:03;;;;;;;;;10.00;8.25;;;;;24.45;52.88;100883.47;6216921;22;53124;-75
2021/09/16 02:41:28;;;;;;;;;7.75;7.25;;;;;24.45;52.76;100886.13;6217486;22;45300;-75
2021/09/16 02:43:54;;;;;;;;;8.00;8.00;;;;;24.45;52.41;100880.78;6217199;22;53935;-75
2021/09/16 02:46:19;;;;;;;;;13.50;10.50;;;;;24.42;53.45;100876.47;6217156;22;45291;-76
2021/09/16 02:48:44;;;;;;;;;11.50;8.50;;;;;24.46;52.69;100871.84;6190327;22;48925;-75
2021/09/16 02:51:10;;;;;;;;;9.25;8.25;;;;;24.46;52.90;100875.38;6215471;22;45526;-75
2021/09/16 02:53:35;;;;;;;;;10.25;8.75;;;;;24.47;52.90;100877.13;6217607;22;45313;-75
2021/09/16 02:56:01;;;;;;;;;10.25;8.50;;;;;24.44;53.00;100881.75;6216637;22;59846;-76
2021/09/16 02:58:26;;;;;;;;;13.25;9.50;;;;;24.44;52.69;100882.59;6190317;22;52551;-75
2021/09/16 03:00:51;;;;;;;;;7.00;6.75;;;;;24.45;52.78;100873.66;6214751;22;50574;-75
2021/09/16 03:03:17;;;;;;;;;8.00;7.50;;;;;24.43;53.00;100880.00;6189850;22;62063;-76
2021/09/16 03:05:42;;;;;;;;;8.00;8.00;;;;;24.42;52.49;100889.81;6190555;22;45261;-76
2021/09/16 03:08:08;;;;;;;;;7.50;7.50;;;;;24.35;52.91;100882.16;6190178;22;45225;-75
2021/09/16 03:10:33;;;;;;;;;10.00;9.00;;;;;24.43;53.36;100904.03;6217271;22;45504;-75
2021/09/16 03:12:58;;;;;;;;;10.50;9.75;;;;;24.42;52.50;100891.63;6164343;22;61675;-75
2021/09/16 03:15:24;;;;;;;;;9.00;9.00;;;;;24.46;52.77;100893.19;6189240;22;49529;-75
2021/09/16 03:17:49;;;;;;;;;9.00;8.25;;;;;24.43;53.01;100888.00;6165140;22;45196;-75
2021/09/16 03:20:15;;;;;;;;;11.75;9.25;;;;;24.40;52.60;100883.66;6190496;22;45210;-75
2021/09/16 03:22:40;;;;;;;;;10.75;8.75;;;;;24.45;52.75;100889.66;6164066;22;64696;-75
2021/09/16 03:25:06;;;;;;;;;6.50;6.50;;;;;24.49;53.06;100896.56;6164650;22;45178;-76
2021/09/16 03:27:32;;;;;;;;;11.75;10.75;;;;;24.43;52.59;100880.00;6190351;22;45201;-75
2021/09/16 03:29:57;;;;;;;;;9.00;8.00;;;;;24.50;52.86;100886.81;6215048;22;53654;-75
2021/09/16 03:32:22;;;;;;;;;9.00;8.00;;;;;24.56;52.70;100897.16;6162997;22;62104;-75
2021/09/16 03:34:48;;;;;;;;;9.50;9.00;;;;;24.55;52.67;100895.44;6163176;22;61357;-75
2021/09/16 03:37:13;;;;;;;;;11.00;9.25;;;;;24.57;52.07;100900.69;6163894;22;57190;-76
2021/09/16 03:39:39;;;;;;;;;10.00;9.00;;;;;24.56;52.05;100897.16;6190031;22;45333;-75
2021/09/16 03:42:04;;;;;;;;;8.00;7.00;;;;;24.52;52.90;100895.59;6189183;22;63590;-75
2021/09/16 03:44:30;;;;;;;;;9.50;8.75;;;;;24.43;52.63;100888.88;6189953;22;45229;-75
2021/09/16 03:46:56;;;;;;;;;9.00;9.00;;;;;24.51;52.24;100893.88;6164313;22;45306;-75
2021/09/16 03:49:21;;;;;;;;;8.25;8.00;;;;;24.49;52.55;100888.56;6163760;22;62100;-75
2021/09/16 03:51:46;;;;;;;;;9.25;9.25;;;;;24.53;53.10;100898.19;6164135;22;46955;-75
2021/09/16 03:54:12;;;;;;;;;8.50;8.50;;;;;24.54;52.20;100896.38;6163714;22;63591;-75
2021/09/16 03:56:37;;;;;;;;;8.25;8.25;;;;;24.52;52.92;100899.13;6164389;22;45655;-77
2021/09/16 03:59:02;;;;;;;;;8.25;7.50;;;;;24.55;52.74;100902.59;6163896;22;59029;-75
2021/09/16 04:01:28;;;;;;;;;9.25;9.00;;;;;24.48;52.41;100896.66;6163244;22;60612;-76
2021/09/16 04:03:53;;;;;;;;;8.00;8.00;;;;;24.54;53.45;100917.72;6216695;22;45230;-76
2021/09/16 04:06:19;;;;;;;;;13.25;10.50;;;;;24.57;52.51;100906.03;6216094;22;52678;-76
2021/09/16 04:08:44;;;;;;;;;14.00;10.00;;;;;24.65;52.01;100911.88;6189865;22;45455;-76
2021/09/16 04:11:09;;;;;;;;;9.50;8.25;;;;;24.66;51.79;100903.81;6190251;22;45780;-76
2021/09/16 04:13:35;;;;;;;;;14.00;11.75;;;;;24.72;51.68;100911.53;6191244;22;46365;-76
2021/09/16 04:16:00;;;;;;;;;10.50;10.00;;;;;24.77;51.36;100919.34;6217830;22;45201;-76
2021/09/16 04:18:26;;;;;;;;;12.00;10.00;;;;;24.78;50.68;100919.25;6215634;22;58894;-76
2021/09/16 04:20:51;;;;;;;;;11.75;11.50;;;;;24.77;50.46;100924.69;6215973;22;47025;-76
2021/09/16 04:23:16;;;;;;;;;14.00;12.25;;;;;24.80;50.21;100927.19;6216538;22;45194;-76
2021/09/16 04:25:42;;;;;;;;;8.00;8.00;;;;;24.79;50.07;100928.13;6217907;22;45652;-76
2021/09/16 04:28:07;;;;;;;;;8.00;8.00;;;;;24.76;49.94;100926.50;6190919;22;53397;-75
2021/09/16 04:30:33;;;;;;;;;10.25;8.00;;;;;24.69;49.79;100924.16;6216223;22;48255;-75
2021/09/16 04:32:58;;;;;;;;;12.50;11.50;;;;;24.72;49.99;100922.22;6217296;22;45177;-75
2021/09/16 04:35:23;;;;;;;;;12.50;10.50;;;;;24.72;49.47;100919.53;6218168;22;45400;-76
2021/09/16 04:37:49;;;;;;;;;11.25;9.25;;;;;24.72;49.54;100916.88;6165071;22;61591;-76
2021/09/16 04:40:14;;;;;;;;;12.75;10.25;;;;;24.70;48.78;100921.44;6217329;22;60886;-76
2021/09/16 04:42:40;;;;;;;;;10.50;10.25;;;;;24.70;49.06;100918.75;6215704;22;59844;-76
2021/09/16 04:45:06;;;;;;;;;9.25;8.00;;;;;24.73;48.64;100931.09;6218562;22;45222;-76
2021/09/16 04:47:31;;;;;;;;;7.00;7.00;;;;;24.64;48.62;100910.16;6165203;22;46079;-76
2021/09/16 04:49:57;;;;;;;;;12.00;10.00;;;;;24.69;48.59;100917.03;6164677;22;63527;-76
2021/09/16 04:52:22;;;;;;;;;11.00;9.75;;;;;24.69;48.67;100922.38;6189742;22;58123;-76
2021/09/16 04:54:48;;;;;;;;;11.00;9.00;;;;;24.62;48.63;100917.38;6190730;22;48599;-79
2021/09/16 04:57:13;;;;;;;;;10.50;9.50;;;;;24.66;48.87;100918.97;6165510;22;45198;-77
2021/09/16 04:59:39;;;;;;;;;11.25;8.75;;;;;24.67;48.34;100918.91;6215405;22;66555;-77
2021/09/16 05:02:04;;;;;;;;;7.50;7.25;;;;;24.62;48.39;100918.25;6190846;22;45282;-77
2021/09/16 05:04:30;;;;;;;;;11.50;10.25;;;;;24.64;48.55;100923.50;6190816;22;60423;-75
2021/09/16 05:06:55;;;;;;;;;9.00;8.25;;;;;24.64;49.35;100924.38;6191097;22;45235;-78
2021/09/16 05:09:20;;;;;;;;;7.50;7.25;;;;;24.63;48.85;100927.13;6165698;22;47083;-78
2021/09/16 05:11:46;;;;;;;;;12.25;10.25;;;;;24.58;49.00;100929.97;6190833;22;61671;-78
2021/09/16 05:14:12;;;;;;;;;8.00;8.00;;;;;24.53;49.40;100929.34;6165603;22;45232;-78
2021/09/16 05:16:37;;;;;;;;;8.50;6.50;;;;;24.54;49.39;100933.75;6191844;22;45476;-86
2021/09/16 05:19:03;;;;;;;;;8.75;8.00;;;;;24.54;50.11;100933.75;6165574;22;48118;-76
2021/09/16 05:21:28;;;;;;;;;12.00;12.00;;;;;24.57;50.62;100930.06;6218027;22;45134;-75
2021/09/16 05:23:54;;;;;;;;;8.25;8.00;;;;;24.63;49.80;100927.97;6190488;22;49524;-82
2021/09/16 05:26:19;;;;;;;;;10.50;10.00;;;;;24.69;50.43;100938.38;6165676;22;45617;-83
2021/09/16 05:28:45;;;;;;;;;7.00;6.75;;;;;24.71;49.49;100935.63;6190251;22;48309;-79
2021/09/16 05:31:11;;;;;;;;;7.25;7.25;;;;;24.71;49.93;100932.97;6190930;22;45277;-80
2021/09/16 05:33:39;;;;;;;;;9.25;7.25;;;;;24.68;49.92;100931.31;6190693;22;45395;-81
2021/09/16 05:36:05;;;;;;;;;7.50;7.00;;;;;24.63;49.96;100930.66;6191522;22;45552;-87
2021/09/16 05:38:30;;;;;;;;;8.25;7.50;;;;;24.60;49.90;100921.94;6165540;22;47333;-79
2021/09/16 05:40:56;;;;;;;;;6.00;6.00;;;;;24.56;50.25;100923.84;6190849;22;45280;-87
2021/09/16 05:43:21;;;;;;;;;6.00;6.00;;;;;24.56;50.18;100925.66;6165111;22;56548;-84
2021/09/16 05:45:47;;;;;;;;;9.00;7.75;;;;;24.57;49.64;100932.72;6190439;22;45897;-81
2021/09/16 05:48:12;;;;;;;;;5.50;5.50;;;;;24.53;50.13;100929.34;6165358;22;45386;-82
2021/09/16 05:50:38;;;;;;;;;7.75;6.75;;;;;24.50;50.11;100932.16;6194204;22;45171;-85
2021/09/16 05:53:03;;;;;;;;;7.50;7.50;;;;;24.45;50.32;100923.50;6192064;22;45573;-87
2021/09/16 05:55:29;;;;;;;;;6.50;6.50;;;;;24.46;50.09;100936.75;6190716;22;45137;-86
2021/09/16 05:57:54;;;;;;;;;6.50;5.50;;;;;24.44;50.58;100943.09;6214692;22;46270;-84
2021/09/16 06:00:20;;;;;;;;;7.50;6.75;;;;;24.48;49.42;100952.69;6215586;22;45336;-79
2021/09/16 06:02:45;;;;;;;;;5.50;5.50;;;;;24.43;50.33;100947.56;6188724;22;45487;-79
2021/09/16 06:05:11;;;;;;;;;6.25;5.25;;;;;24.46;50.56;100955.44;6188431;22;45277;-83
2021/09/16 06:07:36;;;;;;;;;5.25;5.25;;;;;24.45;49.84;100961.72;6190043;22;46861;-83
2021/09/16 06:10:03;;;;;;;;;7.00;5.00;;;;;24.46;49.78;100959.91;6189271;22;45415;-83
2021/09/16 06:12:30;;;;;;;;;6.00;5.75;;;;;24.44;49.67;100970.66;6190028;22;45274;-83
2021/09/16 06:14:55;;;;;;;;;7.00;7.00;;;;;24.41;49.57;100960.13;6165838;22;45216;-84
2021/09/16 06:17:22;;;;;;;;;6.75;5.00;;;;;24.38;50.12;100972.72;6164634;22;46949;-82
2021/09/16 06:19:47;;;;;;;;;5.25;4.50;;;;;24.39;49.32;100979.78;6165991;22;45195;-83
2021/09/16 06:22:13;;;;;;;;;7.00;7.00;;;;;24.36;49.67;100983.47;6191226;22;45237;-83
2021/09/16 06:24:38;;;;;;;;;6.75;5.25;;;;;24.34;49.83;100984.47;6190856;22;45234;-82
2021/09/16 06:27:04;;;;;;;;;5.00;4.25;;;;;24.35;49.54;100996.88;6215845;22;61187;-83
2021/09/16 06:29:29;;;;;;;;;8.50;7.00;;;;;24.34;49.59;100989.81;6190482;22;58116;-82
2021/09/16 06:31:54;;;;;;;;;5.00;4.75;;;;;24.37;49.86;100984.31;6215640;22;52364;-82
2021/09/16 06:34:20;;;;;;;;;4.75;4.75;;;;;24.39;49.77;100991.31;6189726;22;56690;-81
2021/09/16 06:36:45;;;;;;;;;8.00;5.50;;;;;24.43;49.87;100989.41;6190654;22;45250;-83
2021/09/16 06:39:10;;;;;;;;;6.75;6.50;;;;;24.47;49.65;100993.66;6165503;22;45626;-87
2021/09/16 06:41:36;;;;;;;;;7.25;7.00;;;;;24.52;49.68;101010.34;6191020;22;61386;-83
2021/09/16 06:44:01;;;;;;;;;6.75;6.00;;;;;24.52;49.28;101002.34;6190838;22;45363;-83
2021/09/16 06:46:27;;;;;;;;;6.50;5.00;;;;;24.52;49.46;101003.19;6190035;22;62564;-83
2021/09/16 06:48:52;;;;;;;;;7.25;4.25;;;;;24.56;49.29;101011.91;6190612;22;45280;-81
2021/09/16 06:51:18;;;;;;;;;6.00;5.00;;;;;24.61;49.27;101003.72;6190960;22;45281;-82
2021/09/16 06:53:43;;;;;;;;;8.00;6.50;;;;;24.63;49.44;101002.72;6190214;22;53325;-82
2021/09/16 06:56:09;;;;;;;;;6.25;6.00;;;;;24.64;49.11;100995.56;6215827;22;53257;-82
2021/09/16 06:58:34;;;;;;;;;5.00;5.00;;;;;24.67;49.30;100998.09;6190230;22;45252;-82
2021/09/16 07:00:59;;;;;;;;;6.00;4.25;;;;;24.69;48.53;100994.44;6164292;22;54839;-80
2021/09/16 07:03:25;;;;;;;;;4.50;4.25;;;;;24.73;48.78;100995.16;6189817;22;55089;-81
2021/09/16 07:05:50;;;;;;;;;3.50;3.50;;;;;24.75;48.40;101002.16;6161756;22;65736;-82
2021/09/16 07:08:16;;;;;;;;;7.00;6.00;;;;;24.78;48.29;101006.50;6189670;22;54289;-81
2021/09/16 07:10:41;;;;;;;;;6.00;6.00;;;;;24.83;48.62;100998.25;6213357;22;45762;-81
2021/09/16 07:13:07;;;;;;;;;6.00;6.00;;;;;24.86;48.52;100995.47;6189458;22;45259;-82
2021/09/16 07:15:32;;;;;;;;;8.00;6.75;;;;;24.88;48.30;100996.25;6187441;22;45424;-82
2021/09/16 07:17:57;;;;;;;;;5.00;5.00;;;;;24.90;47.98;101002.38;6213995;22;61648;-82
2021/09/16 07:20:23;;;;;;;;;6.00;5.75;;;;;24.91;48.25;101004.13;6188186;22;45213;-79
2021/09/16 07:22:48;;;;;;;;;4.00;4.00;;;;;24.91;47.94;101001.44;6189760;22;49846;-80
2021/09/16 07:25:14;;;;;;;;;6.25;5.50;;;;;24.91;48.14;101002.31;6182538;22;58847;-81
2021/09/16 07:27:39;;;;;;;;;6.00;6.00;;;;;24.93;48.08;101011.09;6213589;22;45490;-82
2021/09/16 07:30:06;;;;;;;;;10.75;5.25;;;;;24.98;49.49;101011.78;6187170;22;54892;-74
2021/09/16 07:32:31;;;;;;;;;7.00;7.00;;;;;25.09;50.48;101005.97;6187380;22;45416;-74
2021/09/16 07:34:57;;;;;;;;;8.00;5.00;;;;;25.21;50.25;101005.41;6189230;22;46145;-73
2021/09/16 07:37:22;;;;;;;;;6.75;5.00;;;;;25.31;49.81;101004.03;6163588;22;45873;-72
2021/09/16 07:39:48;;;;;;;;;6.25;5.50;;;;;25.39;49.46;101000.13;6210498;22;57380;-73
2021/09/16 07:42:13;;;;;;;;;4.25;4.25;;;;;25.48;49.02;100997.88;6206518;22;63486;-73
2021/09/16 07:44:39;;;;;;;;;5.75;5.00;;;;;25.57;49.29;101010.78;6214029;22;45356;-73
2021/09/16 07:47:04;;;;;;;;;7.50;7.00;;;;;25.61;49.33;101007.00;6215996;22;60430;-72
2021/09/16 07:49:29;;;;;;;;;5.00;4.00;;;;;25.62;48.81;101003.38;6216892;22;45218;-72
2021/09/16 07:51:55;;;;;;;;;5.75;4.00;;;;;25.74;48.27;101018.00;6214995;22;51890;-73
2021/09/16 07:54:20;;;;;;;;;5.00;5.00;;;;;25.75;48.19;101010.84;6188883;22;50975;-72
2021/09/16 07:56:46;;;;;;;;;8.50;7.25;;;;;25.80;47.45;101023.06;6189976;22;45569;-73
2021/09/16 07:59:11;;;;;;;;;5.25;4.00;;;;;25.74;47.94;101009.13;6212992;22;45284;-72
2021/09/16 08:01:37;;;;;;;;;5.00;5.00;;;;;25.81;46.94;101021.25;6190915;22;45165;-73
2021/09/16 08:04:05;;;;;;;;;4.00;4.00;;;;;25.69;46.72;101011.97;6217983;22;45276;-73
2021/09/16 08:06:31;;;;;;;;;4.00;3.75;;;;;25.80;46.97;101033.75;6165897;22;45320;-72
2021/09/16 08:08:56;;;;;;;;;4.00;4.00;;;;;25.80;45.45;101033.75;6190951;22;45347;-72
2021/09/16 08:11:22;;;;;;;;;3.75;3.75;;;;;25.76;46.28;101029.47;6182544;22;48588;-73
2021/09/16 08:13:47;;;;;;;;;5.50;3.00;;;;;25.76;46.09;101025.94;6188772;22;45456;-72
2021/09/16 08:16:12;;;;;;;;;4.25;3.25;;;;;25.74;45.42;101020.69;6189845;22;49028;-75
2021/09/16 08:18:38;;;;;;;;;4.50;4.00;;;;;25.75;45.28;101026.91;6216154;22;45277;-74
2021/09/16 08:21:03;;;;;;;;;6.25;6.25;;;;;25.69;45.31;101020.00;6191591;22;45308;-74
2021/09/16 08:23:29;;;;;;;;;6.75;6.75;;;;;25.73;46.06;101031.47;6181163;22;47110;-75
2021/09/16 08:25:54;;;;;;;;;5.00;5.00;;;;;25.63;44.91;101017.66;6164508;22;46041;-74
2021/09/16 08:28:20;;;;;;;;;4.00;4.00;;;;;25.70;45.68;101034.22;6189356;22;52426;-75
2021/09/16 08:30:45;;;;;;;;;6.25;4.75;;;;;25.70;45.53;101026.22;6189847;22;45217;-75
2021/09/16 08:33:11;;;;;;;;;4.50;4.50;;;;;25.71;46.09;101023.47;6216474;22;46405;-74
2021/09/16 08:35:36;;;;;;;;;5.25;5.25;;;;;25.76;45.28;101026.81;6188419;22;45244;-75
2021/09/16 08:38:02;;;;;;;;;7.25;5.00;;;;;25.78;45.59;101024.91;6182893;22;45370;-74
2021/09/16 08:40:27;;;;;;;;;4.00;4.00;;;;;25.80;46.16;101025.72;6187792;22;45455;-74
2021/09/16 08:42:53;;;;;;;;;5.50;5.50;;;;;25.77;46.64;101015.16;6164792;22;64508;-76
2021/09/16 08:45:19;;;;;;;;;3.25;3.00;;;;;25.85;45.58;101021.00;6156685;22;51976;-73
2021/09/16 08:47:45;;;;;;;;;6.25;4.50;;;;;25.81;45.20;101011.41;6188556;22;45344;-73
2021/09/16 08:50:11;;;;;;;;;5.00;4.00;;;;;25.86;43.93;101029.88;6164221;22;45463;-73
2021/09/16 08:52:41;;;;;;;;;5.00;2.75;;;;;25.85;44.37;101029.03;6189251;22;46150;-73
2021/09/16 08:55:08;;;;;;;;;4.50;4.50;;;;;25.87;45.32;101032.47;6207525;22;45335;-73
2021/09/16 08:57:38;;;;;;;;;4.50;3.00;;;;;25.89;45.10;101027.94;6188001;22;45409;-72
2021/09/16 09:00:28;;;;;;;;;4.00;4.00;;;;;25.92;44.54;101041.16;6188951;22;45912;-72
2021/09/16 09:02:54;;;;;;;;;3.25;3.25;;;;;25.90;43.18;101039.50;6181902;22;45201;-72
2021/09/16 09:05:20;;;;;;;;;2.75;2.75;;;;;25.88;43.77;101038.69;6214953;22;45299;-72
2021/09/16 09:07:52;;;;;;;;;2.25;1.50;;;;;25.88;43.26;101041.38;6190299;22;45314;-73
2021/09/16 09:10:46;;;;;;;;;4.00;3.00;;;;;25.92;44.97;101045.66;6156417;22;45340;-72
2021/09/16 09:13:16;;;;;;;;;3.25;3.25;;;;;25.97;42.93;101043.59;6189277;22;46368;-72
2021/09/16 09:15:42;;;;;;;;;4.00;3.00;;;;;26.02;43.42;101049.59;6189562;22;45349;-72
2021/09/16 09:18:16;;;;;;;;;6.00;4.00;;;;;26.06;43.29;101052.97;6164548;22;45242;-72
2021/09/16 09:20:57;;;;;;;;;3.00;3.00;;;;;26.10;43.83;101050.06;6189268;22;45383;-72
2021/09/16 09:23:23;;;;;;;;;4.50;3.00;;;;;26.13;44.15;101043.69;6216506;22;45260;-72
2021/09/16 09:25:48;;;;;;;;;4.00;3.00;;;;;26.17;44.66;101047.97;6189384;22;45271;-71
2021/09/16 09:28:27;;;;;;;;;3.00;3.00;;;;;26.21;43.82;101041.50;6215738;22;45220;-71
2021/09/16 09:30:53;;;;;;;;;3.75;2.50;;;;;26.22;42.70;101053.91;6164278;22;45704;-71
2021/09/16 09:33:18;;;;;;;;;3.50;3.00;;;;;26.20;41.98;101054.00;6188216;22;45622;-71
2021/09/16 09:35:44;;;;;;;;;3.50;3.00;;;;;26.18;42.33;101045.19;6165232;22;45958;-72
2021/09/16 09:38:21;;;;;;;;;3.00;3.00;;;;;26.17;42.24;101047.97;6191269;22;45206;-72
2021/09/16 09:40:54;;;;;;;;;5.00;4.00;;;;;26.19;42.62;101051.41;6216015;22;45387;-73
2021/09/16 09:43:23;;;;;;;;;3.25;2.00;;;;;26.21;41.14;101052.19;6165209;22;47232;-71
2021/09/16 09:46:11;;;;;;;;;3.50;3.50;;;;;26.17;41.73;101046.16;6209701;22;45423;-72
2021/09/16 09:48:58;;;;;;;;;6.00;4.00;;;;;26.14;41.18;101048.94;6187853;22;45337;-73
2021/09/16 09:51:44;;;;;;;;;4.75;4.00;;;;;26.11;41.54;101050.94;6189586;22;45543;-73
2021/09/16 09:54:32;;;;;;;;;4.00;3.75;;;;;26.09;41.84;101051.00;6163533;22;47325;-73
2021/09/16 09:57:10;;;;;;;;;5.25;4.00;;;;;26.10;42.88;101049.19;6214047;22;45317;-73
2021/09/16 10:00:01;;;;;;;;;3.00;3.00;;;;;26.12;42.20;101055.34;6190258;22;45315;-73
2021/09/16 10:02:26;;;;;;;;;4.75;3.00;;;;;26.14;42.19;101050.75;6190088;22;45591;-73
2021/09/16 10:04:52;;;;;;;;;5.00;5.00;;;;;26.14;41.86;101040.06;6190332;22;47113;-73
2021/09/16 10:07:32;;;;;;;;;3.75;3.00;;;;;26.14;42.03;101051.63;6165340;22;45893;-73
2021/09/16 10:09:58;;;;;;;;;4.00;4.00;;;;;26.15;41.64;101042.69;6217344;22;45284;-73
2021/09/16 10:12:24;;;;;;;;;3.50;3.50;;;;;26.11;41.96;101030.41;6217572;22;45274;-73
2021/09/16 10:14:49;;;;;;;;;4.00;4.00;;;;;26.17;43.21;101040.78;6190648;22;47410;-73
2021/09/16 10:17:14;;;;;;;;;5.00;4.25;;;;;26.14;42.60;101037.38;6190232;22;52275;-73
2021/09/16 10:19:40;;;;;;;;;4.00;4.00;;;;;26.20;42.16;101042.44;6217955;22;45699;-73
2021/09/16 10:22:08;;;;;;;;;7.00;5.25;;;;;26.18;42.41;101038.97;6190954;22;45320;-73
2021/09/16 10:24:33;;;;;;;;;6.50;6.25;;;;;26.19;42.38;101043.38;6165287;22;45163;-74
2021/09/16 10:26:59;;;;;;;;;7.75;7.75;;;;;26.16;42.26;101032.84;6164245;22;62300;-73
2021/09/16 10:29:27;;;;;;;;;7.75;7.75;;;;;26.19;43.33;101027.34;6215541;22;54355;-73
2021/09/16 10:32:05;;;;;;;;;3.75;3.75;;;;;26.17;42.23;101024.75;6189844;22;45329;-74
2021/09/16 10:34:56;;;;;;;;;5.00;4.00;;;;;26.12;41.50;101021.41;6189649;22;46780;-74
2021/09/16 10:37:21;;;;;;;;;7.50;6.00;;;;;26.15;41.43;101023.97;6166160;22;45960;-74
2021/09/16 10:39:47;;;;;;;;;4.25;4.25;;;;;26.15;41.88;101028.41;6190757;22;45320;-74
2021/09/16 10:42:13;;;;;;;;;5.00;4.00;;;;;26.14;41.92;101024.00;6215768;22;45285;-73
2021/09/16 10:44:38;;;;;;;;;7.00;4.75;;;;;26.13;41.10;101027.63;6215438;22;45876;-74
2021/09/16 10:47:30;;;;;;;;;6.75;3.75;;;;;26.11;42.11;101029.53;6214904;22;51429;-74
2021/09/16 10:49:55;;;;;;;;;6.75;5.00;;;;;26.10;41.31;101023.31;6210673;22;56665;-73
2021/09/16 10:52:22;;;;;;;;;3.00;3.00;;;;;26.06;41.21;101015.50;6215206;22;62203;-74
2021/09/16 10:54:49;;;;;;;;;5.00;5.00;;;;;26.08;41.14;101019.00;6165295;22;46983;-74
2021/09/16 10:57:35;;;;;;;;;6.50;5.25;;;;;26.12;42.19;101025.91;6189978;22;45644;-73
2021/09/16 11:00:19;;;;;;;;;4.50;4.00;;;;;26.09;41.73;101010.03;6190262;22;45228;-73
2021/09/16 11:02:46;;;;;;;;;4.25;3.25;;;;;26.12;42.20;101028.59;6215934;22;45238;-73
2021/09/16 11:05:15;;;;;;;;;5.00;5.00;;;;;26.11;42.26;101013.47;6217025;22;46431;-74
2021/09/16 11:07:42;;;;;;;;;5.00;5.00;;;;;26.09;42.13;101016.25;6190498;22;45454;-74
2021/09/16 11:10:36;;;;;;;;;5.25;5.00;;;;;26.07;42.37;101014.59;6217624;22;45209;-73
2021/09/16 11:13:04;;;;;;;;;5.25;5.00;;;;;26.05;42.46;101019.13;6217174;22;45325;-73
2021/09/16 11:15:37;;;;;;;;;7.50;5.00;;;;;26.04;42.52;101015.59;6209604;22;45378;-75
2021/09/16 11:18:14;;;;;;;;;4.75;4.75;;;;;26.04;41.97;101015.59;6187329;22;45429;-76
2021/09/16 11:20:40;;;;;;;;;6.50;5.00;;;;;26.05;42.34;101019.13;6165042;22;45282;-77